Relevés horaires St-Hubert (Belgique)


Relevés horaires à St-Hubert - Samedi 31 Mai 2014
Heure UTC1 Température [°C] Vent [km/h] Hum. [%] Pres.4 [hPa] Visi. [Km] Nébu. [octa] Préc.5 [mm] Cond.
2m. Res. Ros. Dir.2 Vit. Moy. Raf.3
23:00 9.6 9.1 6.9 NNE 5.6 9.3 13.0 83 1023(0.2/3h) 13 1/8 -- --
22:00 10.7 9.6 6.2 N 9.3 9.3 11.1 74 1022.8(0.5/3h) 22 1/8 -- --
21:00 12.1 11.6 4.7 N 7.4 9.3 13.0 61 1022.4(0.5/3h) 40 0/8 -- --
20:00 12.9 12.9 5.2 N 5.6 7.4 9.3 59 1022.1(0.5/3h) 40 0/8 -- --
19:00 14.3 14.2 5.4 NNO 7.4 9.3 13.0 55 1021.5(0.0/3h) 40 6/8 -- --
18:00 15.8 15.8 4.0 NNO 7.4 9.3 11.1 45 1021(-0.3/3h) 40 0/8 0/12h
--
17:00 17.2 17.2 4.8 N 5.6 7.4 11.1 44 1020.6(-0.5/3h) 35 0/8 -- --
16:00 16.8 16.8 5.0 N 5.6 9.3 11.1 46 1020.9(-0.4/3h) 35 7/8 -- --
15:00 16.5 16.5 5.3 NNO 5.6 5.6 11.1 47 1021.1(-0.4/3h) 30 0/8 -- --
14:00 16.0 16.0 4.5 NNO 1.9 5.6 11.1 46 1021.4(-0.5/3h) 30 7/8 -- --
13:00 17.1 17.1 4.6 NNO 1.9 3.7 9.3 44 1021.2(-0.6/3h) 25 7/8 -- --
12:00 15.9 15.9 3.6 NNO 1.9 5.6 13.0 44 1021.7(-0.4/3h) 30 0/8 0/6h
--
11:00 14.4 14.4 3.1 N 5.6 5.6 13.0 47 1022.3(-0.4/3h) 40 2/8 -- --
10:00 13.4 13.4 2.8 NNO 0.0 3.7 11.1 49 1022.7(0.0/3h) 35 3/8 -- --
09:00 13.5 13.5 4.6 NNO 1.9 5.6 11.1 55 1022.7(0.6/3h) 30 2/8 -- --
08:00 11.7 11.7 3.4 SE 3.7 5.6 11.1 57 1023.3(1.1/3h) 30 0/8 -- --
07:00 10.9 10.6 3.5 ESE 5.6 5.6 9.3 60 1023.2(1.0/3h) 40 0/8 -- --
06:00 8.7 8.1 4.7 ESE 5.6 7.4 11.1 76 1023.2(0.4/3h) 28 0/8 0/12h
--
05:00 6.7 5.3 3.6 E 7.4 7.4 11.1 81 1023.4(-0.1/3h) 35 0/8 -- --
04:00 4.8 3.1 3.0 E 7.4 7.4 11.1 88 1023.6(-0.5/3h) 24 0/8 -- --
03:00 5.7 4.7 3.1 E 5.6 7.4 11.1 83 1023.5(-0.6/3h) 30 0/8 -- --
02:00 5.7 4.1 3.6 E 7.4 7.4 11.1 86 1023.7(-0.5/3h) 30 1/8 -- --
01:00 5.9 4.9 3.8 E 5.6 7.4 9.3 86 1023.9(0.1/3h) 28 0/8 -- --
00:00 5.9 4.9 4.4 ENE 5.6 9.3 13.0 90 1024.1(0.7/3h) 23 0/8 0/6h
0/24h
--

1 Coordinated Universal Time. Actuellement il est 05:00 locale et 04:00 UTC.

2 Le vent souffle depuis la direction indiquée vers la direction oposée.

3 Les rafales max. sont disponible 40 min après l'heure du relevé.

4 Pour les stations d'altitude (plus de 600m) le géopotentiel du niveau le plus proche de la pression obligatoire est indiqué.

5 Les stations disposant d'un diffuseur peuvent indiquer "trace". Cela signifie que des précipitations ont touchés le sol mais que la quantité est inférieure à 0.1 mm.

Récapitulatif de la journée
Température [°C] Vent [km/h] Ensoleillement4 [h] Precipitations totale5 [mm] Pression [Hpa]
Min1 Max.2 Moy.3 Max. Min Max.
2.8 17.7 7.1 13.0 0 h 0 min 0 1020.6 1024.1

1 Température minimale relevée entre 18:00 UTC la veille et 18:00 UTC le jour donné.

2 Température maximale relevée entre 06:00 UTC le jour donné et 06:00 UTC le lendemain.

3 Vent moyen de la journée basé sur les relevés horaires.

4 Ensoleillement en heures relevé entre 06:00 UTC la veille et 06:00 UTC le jour donné.

5 Précipitations totales tombées entre 06:00 UTC la jour donné et 06:00 UTC le lendemain.

Graphiques horaires